createdAt,value
2023-05-08T00:00:30.761Z,14.67
2023-05-08T00:04:33.638Z,14.67
2023-05-08T00:08:36.487Z,14.65
2023-05-08T00:12:40.680Z,14.64
2023-05-08T00:16:43.597Z,14.62
2023-05-08T00:20:46.495Z,14.55
2023-05-08T00:24:49.375Z,14.60
2023-05-08T00:28:53.541Z,14.54
2023-05-08T00:32:56.658Z,14.56
2023-05-08T00:36:59.830Z,14.51
2023-05-08T00:41:03.146Z,14.42
2023-05-08T00:45:08.366Z,14.31
2023-05-08T00:49:14.446Z,14.30
2023-05-08T00:53:18.330Z,14.30
2023-05-08T00:57:22.585Z,14.21
2023-05-08T01:01:27.057Z,14.34
2023-05-08T01:05:30.050Z,14.36
2023-05-08T01:09:32.905Z,14.22
2023-05-08T01:13:41.659Z,14.21
2023-05-08T01:17:53.688Z,14.23
2023-05-08T01:22:01.691Z,14.28
2023-05-08T01:26:25.566Z,14.25
2023-05-08T01:30:45.293Z,14.34
2023-05-08T01:34:57.829Z,14.31
2023-05-08T01:39:04.863Z,14.41
2023-05-08T01:43:12.653Z,14.46
2023-05-08T01:47:16.799Z,14.46
2023-05-08T01:51:22.839Z,14.54
2023-05-08T01:55:27.349Z,14.57
2023-05-08T01:59:34.111Z,14.59
2023-05-08T02:03:38.527Z,14.65
2023-05-08T02:07:45.022Z,14.58
2023-05-08T02:11:48.979Z,14.47
2023-05-08T02:15:55.040Z,14.49
2023-05-08T02:19:59.288Z,14.49
2023-05-08T02:24:04.184Z,14.61
2023-05-08T02:28:07.692Z,14.62
2023-05-08T02:32:12.457Z,14.57
2023-05-08T02:36:17.913Z,14.64
2023-05-08T02:40:23.509Z,14.62
2023-05-08T02:44:28.635Z,14.61
2023-05-08T02:48:35.341Z,14.66
2023-05-08T02:52:44.144Z,14.64
2023-05-08T02:56:54.818Z,14.61
2023-05-08T03:00:59.876Z,14.61
2023-05-08T03:05:04.885Z,14.63
2023-05-08T03:09:09.211Z,14.61
2023-05-08T03:13:14.409Z,14.60
2023-05-08T03:17:18.190Z,14.62
2023-05-08T03:21:22.538Z,14.52
2023-05-08T03:25:26.612Z,14.59
2023-05-08T03:29:31.661Z,14.56
2023-05-08T03:33:35.709Z,14.58
2023-05-08T03:37:39.085Z,14.54
2023-05-08T03:41:42.638Z,14.56
2023-05-08T03:45:47.562Z,14.49
2023-05-08T03:49:51.045Z,14.43
2023-05-08T03:53:54.481Z,14.36
2023-05-08T03:58:01.203Z,14.29
2023-05-08T04:02:10.495Z,14.31
2023-05-08T04:06:16.838Z,14.31
2023-05-08T04:10:23.212Z,14.33
2023-05-08T04:14:28.813Z,14.36
2023-05-08T04:18:35.798Z,14.34
2023-05-08T04:22:41.117Z,14.33
2023-05-08T04:26:45.855Z,14.31
2023-05-08T04:30:49.130Z,14.34
2023-05-08T04:34:53.692Z,14.35
2023-05-08T04:38:56.875Z,14.38
2023-05-08T04:43:00.706Z,14.46
2023-05-08T04:47:03.886Z,14.47
2023-05-08T04:51:08.730Z,14.40
2023-05-08T04:55:12.404Z,14.45
2023-05-08T04:59:16.189Z,14.48
2023-05-08T05:03:19.903Z,14.50
2023-05-08T05:07:24.312Z,14.52
2023-05-08T05:11:28.136Z,14.61
2023-05-08T05:15:31.117Z,14.69
2023-05-08T05:19:34.153Z,14.79
2023-05-08T05:23:38.541Z,14.87
2023-05-08T05:27:42.174Z,14.98
2023-05-08T05:31:46.404Z,15.03
2023-05-08T05:35:49.672Z,15.01
2023-05-08T05:39:54.067Z,15.29
2023-05-08T05:43:57.004Z,15.46
2023-05-08T05:48:00.215Z,15.58
2023-05-08T05:52:03.877Z,15.96
2023-05-08T05:56:08.898Z,16.00
2023-05-08T06:00:12.320Z,15.98
2023-05-08T06:04:17.757Z,15.71
2023-05-08T06:08:20.775Z,15.74
2023-05-08T06:12:25.531Z,15.85
2023-05-08T06:16:30.441Z,16.10
2023-05-08T06:20:33.605Z,15.96
2023-05-08T06:24:36.742Z,16.05
2023-05-08T06:28:41.013Z,16.20
2023-05-08T06:32:43.872Z,16.32
2023-05-08T06:36:46.755Z,16.77
2023-05-08T06:40:50.820Z,16.84
2023-05-08T06:44:55.315Z,16.83
2023-05-08T06:48:58.162Z,16.69
2023-05-08T06:53:01.042Z,16.37
2023-05-08T06:57:04.270Z,16.36
2023-05-08T07:01:08.500Z,16.42
2023-05-08T07:05:11.802Z,16.53
2023-05-08T07:09:16.264Z,16.60
2023-05-08T07:13:22.059Z,16.54
2023-05-08T07:17:26.915Z,16.58
2023-05-08T07:21:30.762Z,16.79
2023-05-08T07:25:34.130Z,16.77
2023-05-08T07:29:37.351Z,16.86
2023-05-08T07:33:41.830Z,16.87
2023-05-08T07:37:44.858Z,17.08
2023-05-08T07:41:49.907Z,17.09
2023-05-08T07:45:53.101Z,17.23
2023-05-08T07:49:57.339Z,17.53
2023-05-08T07:54:00.187Z,17.57
2023-05-08T07:58:03.486Z,17.68
2023-05-08T08:02:07.397Z,18.22
2023-05-08T08:06:11.762Z,18.14
2023-05-08T08:10:14.671Z,18.39
2023-05-08T08:14:17.976Z,18.77
2023-05-08T08:18:20.931Z,19.11
2023-05-08T08:22:25.188Z,19.43
2023-05-08T08:26:28.144Z,19.65
2023-05-08T08:30:31.116Z,20.14
2023-05-08T08:34:34.421Z,19.66
2023-05-08T08:38:38.615Z,19.83
2023-05-08T08:42:42.248Z,19.60
2023-05-08T08:46:46.069Z,20.57
2023-05-08T08:50:52.080Z,21.39
2023-05-08T08:54:56.522Z,20.67
2023-05-08T08:59:00.170Z,20.59
2023-05-08T09:03:03.141Z,21.18
2023-05-08T09:07:08.665Z,20.65
2023-05-08T09:11:13.055Z,20.83
2023-05-08T09:15:16.319Z,21.14
2023-05-08T09:19:20.970Z,21.66
2023-05-08T09:23:25.247Z,21.76
2023-05-08T09:27:30.132Z,21.23
2023-05-08T09:31:36.122Z,20.77
2023-05-08T09:35:39.102Z,21.31
2023-05-08T09:39:43.358Z,21.12
2023-05-08T09:44:01.604Z,21.68
2023-05-08T09:48:04.664Z,22.43
2023-05-08T09:52:07.928Z,22.37
2023-05-08T09:56:10.873Z,23.96
2023-05-08T10:00:16.076Z,24.17
2023-05-08T10:04:19.188Z,23.61
2023-05-08T10:08:22.933Z,24.43
2023-05-08T10:12:25.865Z,24.72
2023-05-08T10:16:31.717Z,22.74
2023-05-08T10:20:35.723Z,23.01
2023-05-08T10:24:42.437Z,23.30
2023-05-08T10:28:49.505Z,23.78
2023-05-08T10:32:55.569Z,23.33
2023-05-08T10:36:59.676Z,24.01
2023-05-08T10:41:02.782Z,23.26
2023-05-08T10:45:06.509Z,23.71
2023-05-08T10:49:17.730Z,24.16
2023-05-08T10:53:23.830Z,22.80
2023-05-08T10:57:26.866Z,24.33
2023-05-08T11:01:29.779Z,26.45
2023-05-08T11:05:46.552Z,26.05
2023-05-08T11:09:49.477Z,25.85
2023-05-08T11:13:54.474Z,24.98
2023-05-08T11:17:57.470Z,24.75
2023-05-08T11:22:14.644Z,23.69
2023-05-08T11:26:17.704Z,23.56
2023-05-08T11:30:24.605Z,23.68
2023-05-08T11:34:45.437Z,22.77
2023-05-08T11:39:07.725Z,22.71
2023-05-08T11:43:20.720Z,22.71
2023-05-08T11:47:25.847Z,21.48
2023-05-08T11:51:32.601Z,21.40
2023-05-08T11:55:37.740Z,22.18
2023-05-08T11:59:43.655Z,21.64
2023-05-08T12:03:46.740Z,21.32
2023-05-08T12:07:49.787Z,21.77
2023-05-08T12:11:58.101Z,21.71
2023-05-08T12:16:01.761Z,21.61
2023-05-08T12:20:11.345Z,21.89
2023-05-08T12:24:14.491Z,20.80
2023-05-08T12:28:18.752Z,20.70
2023-05-08T12:32:21.980Z,20.14
2023-05-08T12:36:25.038Z,20.01
2023-05-08T12:40:28.839Z,20.32
2023-05-08T12:44:33.065Z,20.16
2023-05-08T12:48:35.956Z,20.18
2023-05-08T12:52:38.952Z,19.69
2023-05-08T12:56:43.757Z,19.82
2023-05-08T13:00:48.629Z,19.59
2023-05-08T13:04:56.092Z,19.74
2023-05-08T13:08:59.179Z,19.47
2023-05-08T13:13:02.054Z,19.46
2023-05-08T13:17:06.498Z,19.37
2023-05-08T13:21:09.421Z,19.10
2023-05-08T13:25:12.766Z,18.12
2023-05-08T13:29:16.207Z,17.58
2023-05-08T13:33:20.427Z,17.39
2023-05-08T13:37:23.627Z,17.15
2023-05-08T13:41:26.798Z,17.12
2023-05-08T13:45:29.657Z,17.14
2023-05-08T13:49:33.872Z,17.25
2023-05-08T13:53:36.770Z,17.41
2023-05-08T13:57:40.032Z,17.29
2023-05-08T14:01:43.011Z,17.38
2023-05-08T14:05:47.279Z,17.46
2023-05-08T14:09:50.173Z,17.58
2023-05-08T14:13:53.082Z,17.63
2023-05-08T14:17:56.056Z,17.73
2023-05-08T14:22:00.727Z,17.87
2023-05-08T14:26:03.670Z,18.25
2023-05-08T14:30:07.320Z,18.06
2023-05-08T14:34:10.316Z,18.36
2023-05-08T14:38:14.704Z,18.35
2023-05-08T14:42:23.344Z,18.23
2023-05-08T14:46:26.806Z,18.46
2023-05-08T14:50:29.919Z,18.73
2023-05-08T14:54:34.444Z,19.13
2023-05-08T14:58:37.602Z,19.29
2023-05-08T15:02:41.011Z,19.69
2023-05-08T15:06:44.079Z,19.88
2023-05-08T15:10:48.377Z,20.56
2023-05-08T15:14:51.319Z,21.42
2023-05-08T15:18:54.206Z,21.74
2023-05-08T15:22:57.092Z,21.72
2023-05-08T15:27:01.450Z,22.34
2023-05-08T15:31:04.943Z,22.83
2023-05-08T15:35:08.072Z,23.00
2023-05-08T15:39:10.997Z,23.02
2023-05-08T15:43:15.483Z,23.80
2023-05-08T15:47:19.544Z,23.14
2023-05-08T15:51:22.542Z,23.57
2023-05-08T15:55:25.471Z,23.72
2023-05-08T15:59:29.688Z,23.36
2023-05-08T16:03:33.109Z,23.58
2023-05-08T16:07:36.645Z,22.60
2023-05-08T16:11:39.578Z,22.52
2023-05-08T16:15:43.928Z,21.78
2023-05-08T16:19:47.224Z,21.48
2023-05-08T16:23:50.142Z,22.25
2023-05-08T16:27:53.020Z,21.85
2023-05-08T16:31:57.498Z,21.85
2023-05-08T16:36:00.491Z,21.90
2023-05-08T16:40:03.603Z,21.46
2023-05-08T16:44:06.770Z,21.61
2023-05-08T16:48:11.224Z,21.48
2023-05-08T16:52:14.217Z,20.80
2023-05-08T16:56:17.206Z,20.60
2023-05-08T17:00:21.068Z,20.79
2023-05-08T17:04:25.323Z,20.55
2023-05-08T17:08:28.169Z,20.49
2023-05-08T17:12:31.060Z,20.25
2023-05-08T17:16:34.181Z,20.05
2023-05-08T17:20:42.323Z,20.09
2023-05-08T17:24:45.366Z,19.99
2023-05-08T17:28:48.226Z,19.88
2023-05-08T17:32:51.835Z,19.77
2023-05-08T17:36:56.513Z,19.80
2023-05-08T17:41:00.497Z,19.76
2023-05-08T17:45:04.904Z,19.67
2023-05-08T17:49:07.845Z,19.54
2023-05-08T17:53:12.506Z,19.44
2023-05-08T17:57:15.344Z,19.37
2023-05-08T18:01:20.238Z,19.15
2023-05-08T18:05:23.243Z,19.12
2023-05-08T18:09:27.507Z,19.01
2023-05-08T18:13:30.664Z,18.87
2023-05-08T18:17:33.676Z,18.76
2023-05-08T18:21:36.597Z,18.61
2023-05-08T18:25:40.800Z,18.65
2023-05-08T18:29:43.728Z,18.51
2023-05-08T18:33:47.153Z,18.31
2023-05-08T18:37:50.550Z,18.19
2023-05-08T18:41:54.810Z,18.09
2023-05-08T18:45:58.100Z,18.06
2023-05-08T18:50:01.031Z,17.88
2023-05-08T18:54:03.885Z,17.80
2023-05-08T18:58:08.141Z,17.68
2023-05-08T19:02:11.306Z,17.52
2023-05-08T19:06:14.867Z,17.43
2023-05-08T19:10:18.026Z,17.31
2023-05-08T19:14:22.205Z,17.24
2023-05-08T19:18:25.640Z,17.13
2023-05-08T19:22:28.595Z,16.98
2023-05-08T19:26:31.477Z,16.87
2023-05-08T19:30:35.683Z,16.90
2023-05-08T19:34:39.480Z,16.88
2023-05-08T19:38:42.515Z,16.77
2023-05-08T19:42:45.906Z,16.73
2023-05-08T19:46:51.467Z,16.76
2023-05-08T19:50:55.176Z,16.66
2023-05-08T19:54:58.241Z,16.66
2023-05-08T19:59:01.051Z,16.59
2023-05-08T20:03:06.046Z,16.53
2023-05-08T20:07:11.025Z,16.41
2023-05-08T20:11:13.898Z,16.45
2023-05-08T20:15:16.776Z,16.34
2023-05-08T20:19:21.555Z,16.37
2023-05-08T20:23:24.703Z,16.31
2023-05-08T20:27:27.577Z,16.10
2023-05-08T20:31:30.815Z,15.94
2023-05-08T20:35:35.457Z,15.85
2023-05-08T20:39:38.549Z,15.76
2023-05-08T20:43:41.587Z,15.66
2023-05-08T20:47:44.559Z,15.56
2023-05-08T20:51:48.813Z,15.50
2023-05-08T20:55:51.720Z,15.52
2023-05-08T20:59:54.580Z,15.59
2023-05-08T21:03:57.480Z,15.76
2023-05-08T21:08:03.575Z,15.95
2023-05-08T21:12:06.748Z,15.97
2023-05-08T21:16:09.932Z,16.08
2023-05-08T21:20:13.305Z,16.13
2023-05-08T21:24:17.738Z,16.22
2023-05-08T21:28:20.949Z,16.22
2023-05-08T21:32:24.009Z,16.33
2023-05-08T21:36:26.977Z,16.38
2023-05-08T21:40:31.373Z,16.40
2023-05-08T21:44:34.232Z,16.36
2023-05-08T21:48:37.441Z,16.40
2023-05-08T21:52:40.438Z,16.40
2023-05-08T21:56:44.677Z,16.40
2023-05-08T22:00:47.611Z,16.42
2023-05-08T22:04:50.488Z,16.36
2023-05-08T22:08:53.378Z,16.33
2023-05-08T22:12:57.664Z,16.29
2023-05-08T22:17:00.539Z,16.29
2023-05-08T22:21:03.541Z,16.25
2023-05-08T22:25:07.108Z,16.18
2023-05-08T22:29:11.408Z,16.19
2023-05-08T22:33:14.395Z,16.18
2023-05-08T22:37:17.601Z,16.17
2023-05-08T22:41:20.610Z,16.16
2023-05-08T22:45:24.861Z,16.18
2023-05-08T22:49:27.790Z,16.15
2023-05-08T22:53:30.724Z,16.19
2023-05-08T22:57:33.658Z,16.15
2023-05-08T23:01:37.985Z,16.15
2023-05-08T23:05:40.879Z,16.14
2023-05-08T23:09:43.738Z,16.11
2023-05-08T23:13:46.740Z,16.05
2023-05-08T23:17:50.980Z,16.03
2023-05-08T23:21:54.161Z,15.93
2023-05-08T23:26:01.009Z,15.85
2023-05-08T23:30:04.024Z,15.83
2023-05-08T23:34:09.317Z,15.83
2023-05-08T23:38:12.364Z,15.71
2023-05-08T23:42:15.332Z,15.67
2023-05-08T23:46:18.379Z,15.55
2023-05-08T23:50:23.069Z,15.50
2023-05-08T23:54:26.131Z,15.43
2023-05-08T23:58:28.974Z,15.37
